首页
METAR-TAF:

METAR-TAF

机场 :

塔兰托, 意大利

纬度: 40-31N, 经度: 017-24E, 海拔: 64米

当前天气观测

该预报发布于12小时和14分钟前的17:50 UTC
风速3节,风向
温度 22°C
湿度 78%
气压 1017 hPa
能见度10公里或以上
1500米以下无云,无积雨云

METAR: LIBG 221750Z 19003KT CAVOK 22/18 Q1017

时间: 08:04 (06:04 UTC)

预报

该预报发布于1小时和4分钟前的05:00 UTC
预报有效从23日的 06点(UTC)到 23日的 15点(UTC)
风速13节,风向南转西南
能见度10公里或以上
多云层高于4000英尺
短暂存在
从 23日的 06点(UTC)到 23日的 08点(UTC)
阵雨

TAF: LIBG 230500Z 2306/2315 20013KT 9999 BKN040 TEMPO 2306/2308 SHRA

超过4000个机场的气象观测和天气预报(METAR&TAF报告)。

可查询的气象台以黄色和红色小点在地图上表示。

将鼠标移到小点上方,可查看气象台名称。

然后点击查看天气观测和预报。

如需切换地图:点击带黑十字的绿色按钮放大地图;点击带横线的绿色按钮缩小地图;或者点击绿色箭头查看邻近地区的地图。


METAR-TAF: